sensor_id;sensor_type;location;lat;lon;timestamp;temperature;humidity
14779;DHT22;7481;53.750;10.570;2022-07-30T00:01:33;17.80;99.90
14779;DHT22;7481;53.750;10.570;2022-07-30T00:04:21;17.70;99.90
14779;DHT22;7481;53.750;10.570;2022-07-30T00:07:10;17.70;99.90
14779;DHT22;7481;53.750;10.570;2022-07-30T00:09:58;17.70;99.90
14779;DHT22;7481;53.750;10.570;2022-07-30T00:12:45;17.70;99.90
14779;DHT22;7481;53.750;10.570;2022-07-30T00:15:32;17.70;99.90
14779;DHT22;7481;53.750;10.570;2022-07-30T00:18:19;17.70;99.90
14779;DHT22;7481;53.750;10.570;2022-07-30T00:21:08;17.70;99.90
14779;DHT22;7481;53.750;10.570;2022-07-30T00:23:56;17.70;99.90
14779;DHT22;7481;53.750;10.570;2022-07-30T00:26:48;17.60;99.90
14779;DHT22;7481;53.750;10.570;2022-07-30T00:29:35;17.60;99.90
14779;DHT22;7481;53.750;10.570;2022-07-30T00:32:30;17.50;99.90
14779;DHT22;7481;53.750;10.570;2022-07-30T00:35:18;17.50;99.90
14779;DHT22;7481;53.750;10.570;2022-07-30T00:38:05;17.50;99.90
14779;DHT22;7481;53.750;10.570;2022-07-30T00:40:52;17.50;99.90
14779;DHT22;7481;53.750;10.570;2022-07-30T00:43:39;17.50;99.90
14779;DHT22;7481;53.750;10.570;2022-07-30T00:46:26;17.50;99.90
14779;DHT22;7481;53.750;10.570;2022-07-30T00:49:13;17.50;99.90
14779;DHT22;7481;53.750;10.570;2022-07-30T00:52:01;17.40;99.90
14779;DHT22;7481;53.750;10.570;2022-07-30T00:54:48;17.40;99.90
14779;DHT22;7481;53.750;10.570;2022-07-30T00:57:35;17.30;99.90
14779;DHT22;7481;53.750;10.570;2022-07-30T01:00:23;17.30;99.90
14779;DHT22;7481;53.750;10.570;2022-07-30T01:03:10;17.30;99.90
14779;DHT22;7481;53.750;10.570;2022-07-30T01:05:56;17.20;99.90
14779;DHT22;7481;53.750;10.570;2022-07-30T01:08:43;17.10;99.90
14779;DHT22;7481;53.750;10.570;2022-07-30T01:11:35;19.50;99.90
14779;DHT22;7481;53.750;10.570;2022-07-30T01:14:22;17.00;99.90
14779;DHT22;7481;53.750;10.570;2022-07-30T01:17:09;17.00;99.90
14779;DHT22;7481;53.750;10.570;2022-07-30T01:20:03;16.90;99.90
14779;DHT22;7481;53.750;10.570;2022-07-30T01:23:12;16.90;99.90
14779;DHT22;7481;53.750;10.570;2022-07-30T01:26:07;16.90;99.90
14779;DHT22;7481;53.750;10.570;2022-07-30T01:28:55;16.90;99.90
14779;DHT22;7481;53.750;10.570;2022-07-30T01:31:43;16.90;99.90
14779;DHT22;7481;53.750;10.570;2022-07-30T01:34:34;16.90;99.90
14779;DHT22;7481;53.750;10.570;2022-07-30T01:37:22;16.90;99.90
14779;DHT22;7481;53.750;10.570;2022-07-30T01:40:09;16.90;99.90
14779;DHT22;7481;53.750;10.570;2022-07-30T01:42:59;16.90;99.90
14779;DHT22;7481;53.750;10.570;2022-07-30T01:45:47;16.90;99.90
14779;DHT22;7481;53.750;10.570;2022-07-30T01:48:37;16.90;99.90
14779;DHT22;7481;53.750;10.570;2022-07-30T01:51:27;16.90;99.90
14779;DHT22;7481;53.750;10.570;2022-07-30T01:54:25;16.90;99.90
14779;DHT22;7481;53.750;10.570;2022-07-30T01:57:14;16.90;99.90
14779;DHT22;7481;53.750;10.570;2022-07-30T02:00:04;16.90;99.90
14779;DHT22;7481;53.750;10.570;2022-07-30T02:02:52;16.90;99.90
14779;DHT22;7481;53.750;10.570;2022-07-30T02:05:42;16.90;99.90
14779;DHT22;7481;53.750;10.570;2022-07-30T02:08:44;16.90;99.90
14779;DHT22;7481;53.750;10.570;2022-07-30T02:11:36;16.90;99.90
14779;DHT22;7481;53.750;10.570;2022-07-30T02:14:51;16.90;99.90
14779;DHT22;7481;53.750;10.570;2022-07-30T02:18:22;16.90;99.90
14779;DHT22;7481;53.750;10.570;2022-07-30T02:21:11;16.80;99.90
14779;DHT22;7481;53.750;10.570;2022-07-30T02:24:01;16.80;99.90
14779;DHT22;7481;53.750;10.570;2022-07-30T02:26:55;16.80;99.90
14779;DHT22;7481;53.750;10.570;2022-07-30T02:29:46;16.80;99.90
14779;DHT22;7481;53.750;10.570;2022-07-30T02:32:37;16.80;99.90
14779;DHT22;7481;53.750;10.570;2022-07-30T02:35:27;16.80;99.90
14779;DHT22;7481;53.750;10.570;2022-07-30T02:38:17;16.80;99.90
14779;DHT22;7481;53.750;10.570;2022-07-30T02:41:06;16.80;99.90
14779;DHT22;7481;53.750;10.570;2022-07-30T02:43:56;16.80;99.90
14779;DHT22;7481;53.750;10.570;2022-07-30T02:46:44;16.80;99.90
14779;DHT22;7481;53.750;10.570;2022-07-30T02:49:33;16.80;99.90
14779;DHT22;7481;53.750;10.570;2022-07-30T02:52:23;16.70;99.90
14779;DHT22;7481;53.750;10.570;2022-07-30T02:55:12;16.70;99.90
14779;DHT22;7481;53.750;10.570;2022-07-30T02:58:01;16.70;99.90
14779;DHT22;7481;53.750;10.570;2022-07-30T03:00:51;16.70;99.90
14779;DHT22;7481;53.750;10.570;2022-07-30T03:03:41;16.70;99.90
14779;DHT22;7481;53.750;10.570;2022-07-30T03:06:29;16.70;99.90
14779;DHT22;7481;53.750;10.570;2022-07-30T03:09:17;16.60;99.90
14779;DHT22;7481;53.750;10.570;2022-07-30T03:12:05;16.60;99.90
14779;DHT22;7481;53.750;10.570;2022-07-30T03:14:55;16.70;99.90
14779;DHT22;7481;53.750;10.570;2022-07-30T03:17:45;16.70;99.90
14779;DHT22;7481;53.750;10.570;2022-07-30T03:20:34;16.60;99.90
14779;DHT22;7481;53.750;10.570;2022-07-30T03:23:23;16.60;99.90
14779;DHT22;7481;53.750;10.570;2022-07-30T03:26:11;16.60;99.90
14779;DHT22;7481;53.750;10.570;2022-07-30T03:29:01;16.60;99.90
14779;DHT22;7481;53.750;10.570;2022-07-30T03:31:48;16.60;99.90
14779;DHT22;7481;53.750;10.570;2022-07-30T03:34:36;16.60;99.90
14779;DHT22;7481;53.750;10.570;2022-07-30T03:37:26;16.60;99.90
14779;DHT22;7481;53.750;10.570;2022-07-30T03:40:14;16.60;99.90
14779;DHT22;7481;53.750;10.570;2022-07-30T03:43:01;16.70;99.90
14779;DHT22;7481;53.750;10.570;2022-07-30T03:45:49;17.70;99.90
14779;DHT22;7481;53.750;10.570;2022-07-30T03:48:37;16.60;99.90
14779;DHT22;7481;53.750;10.570;2022-07-30T03:51:25;16.50;99.90
14779;DHT22;7481;53.750;10.570;2022-07-30T03:54:19;16.60;99.90
14779;DHT22;7481;53.750;10.570;2022-07-30T03:57:06;16.60;99.90
14779;DHT22;7481;53.750;10.570;2022-07-30T03:59:54;16.60;99.90
14779;DHT22;7481;53.750;10.570;2022-07-30T04:02:42;16.60;99.90
14779;DHT22;7481;53.750;10.570;2022-07-30T04:05:29;16.70;99.90
14779;DHT22;7481;53.750;10.570;2022-07-30T04:08:27;16.70;99.90
14779;DHT22;7481;53.750;10.570;2022-07-30T04:11:16;16.70;99.90
14779;DHT22;7481;53.750;10.570;2022-07-30T04:14:07;16.70;99.90
14779;DHT22;7481;53.750;10.570;2022-07-30T04:17:07;16.70;99.90
14779;DHT22;7481;53.750;10.570;2022-07-30T04:20:00;16.70;99.90
14779;DHT22;7481;53.750;10.570;2022-07-30T04:22:49;16.70;99.90
14779;DHT22;7481;53.750;10.570;2022-07-30T04:25:38;16.70;99.90
14779;DHT22;7481;53.750;10.570;2022-07-30T04:28:26;16.80;99.90
14779;DHT22;7481;53.750;10.570;2022-07-30T04:31:14;16.80;99.90
14779;DHT22;7481;53.750;10.570;2022-07-30T04:34:03;16.80;99.90
14779;DHT22;7481;53.750;10.570;2022-07-30T04:36:50;16.70;99.90
14779;DHT22;7481;53.750;10.570;2022-07-30T04:39:37;16.70;99.90
14779;DHT22;7481;53.750;10.570;2022-07-30T04:42:26;16.80;99.90
14779;DHT22;7481;53.750;10.570;2022-07-30T04:45:13;16.80;99.90
14779;DHT22;7481;53.750;10.570;2022-07-30T04:48:00;16.70;99.90
14779;DHT22;7481;53.750;10.570;2022-07-30T04:50:50;16.80;99.90
14779;DHT22;7481;53.750;10.570;2022-07-30T04:53:40;16.90;99.90
14779;DHT22;7481;53.750;10.570;2022-07-30T04:56:29;16.90;99.90
14779;DHT22;7481;53.750;10.570;2022-07-30T04:59:20;17.00;99.90
14779;DHT22;7481;53.750;10.570;2022-07-30T05:02:10;17.20;99.90
14779;DHT22;7481;53.750;10.570;2022-07-30T05:04:58;17.30;99.90
14779;DHT22;7481;53.750;10.570;2022-07-30T05:07:46;17.40;99.90
14779;DHT22;7481;53.750;10.570;2022-07-30T05:10:33;17.40;99.90
14779;DHT22;7481;53.750;10.570;2022-07-30T05:13:20;17.50;99.90
14779;DHT22;7481;53.750;10.570;2022-07-30T05:16:14;17.50;99.90
14779;DHT22;7481;53.750;10.570;2022-07-30T05:19:01;17.50;99.90
14779;DHT22;7481;53.750;10.570;2022-07-30T05:21:53;17.50;99.90
14779;DHT22;7481;53.750;10.570;2022-07-30T05:24:41;17.60;99.90
14779;DHT22;7481;53.750;10.570;2022-07-30T05:27:27;17.60;99.90
14779;DHT22;7481;53.750;10.570;2022-07-30T05:30:14;17.60;99.90
14779;DHT22;7481;53.750;10.570;2022-07-30T05:33:01;17.60;99.90
14779;DHT22;7481;53.750;10.570;2022-07-30T05:35:56;17.60;99.90
14779;DHT22;7481;53.750;10.570;2022-07-30T05:38:47;17.70;99.90
14779;DHT22;7481;53.750;10.570;2022-07-30T05:41:34;17.80;99.90
14779;DHT22;7481;53.750;10.570;2022-07-30T05:44:21;17.80;99.90
14779;DHT22;7481;53.750;10.570;2022-07-30T05:47:10;17.80;99.90
14779;DHT22;7481;53.750;10.570;2022-07-30T05:49:57;17.80;99.90
14779;DHT22;7481;53.750;10.570;2022-07-30T05:52:50;17.80;99.90
14779;DHT22;7481;53.750;10.570;2022-07-30T05:55:37;17.80;99.90
14779;DHT22;7481;53.750;10.570;2022-07-30T05:58:24;17.80;99.90
14779;DHT22;7481;53.750;10.570;2022-07-30T06:01:11;17.80;99.90
14779;DHT22;7481;53.750;10.570;2022-07-30T06:03:58;17.80;99.90
14779;DHT22;7481;53.750;10.570;2022-07-30T06:06:45;17.90;99.90
14779;DHT22;7481;53.750;10.570;2022-07-30T06:09:32;19.30;99.90
14779;DHT22;7481;53.750;10.570;2022-07-30T06:12:23;17.80;99.90
14779;DHT22;7481;53.750;10.570;2022-07-30T06:15:10;17.80;99.90
14779;DHT22;7481;53.750;10.570;2022-07-30T06:17:57;17.80;99.90
14779;DHT22;7481;53.750;10.570;2022-07-30T06:20:49;17.80;99.90
14779;DHT22;7481;53.750;10.570;2022-07-30T06:23:37;17.90;99.90
14779;DHT22;7481;53.750;10.570;2022-07-30T06:26:24;17.90;99.90
14779;DHT22;7481;53.750;10.570;2022-07-30T06:29:11;17.90;99.90
14779;DHT22;7481;53.750;10.570;2022-07-30T06:31:59;18.00;99.90
14779;DHT22;7481;53.750;10.570;2022-07-30T06:34:46;18.00;99.90
14779;DHT22;7481;53.750;10.570;2022-07-30T06:37:33;18.60;99.90
14779;DHT22;7481;53.750;10.570;2022-07-30T06:40:40;18.10;99.90
14779;DHT22;7481;53.750;10.570;2022-07-30T06:43:27;18.10;99.90
14779;DHT22;7481;53.750;10.570;2022-07-30T06:46:14;18.20;99.90
14779;DHT22;7481;53.750;10.570;2022-07-30T06:49:01;18.30;99.90
14779;DHT22;7481;53.750;10.570;2022-07-30T06:51:48;18.40;99.90
14779;DHT22;7481;53.750;10.570;2022-07-30T06:54:35;17.60;99.90
14779;DHT22;7481;53.750;10.570;2022-07-30T06:57:22;18.40;99.90
14779;DHT22;7481;53.750;10.570;2022-07-30T07:00:10;18.40;99.90
14779;DHT22;7481;53.750;10.570;2022-07-30T07:02:57;18.50;99.90
14779;DHT22;7481;53.750;10.570;2022-07-30T07:05:44;18.70;99.90
14779;DHT22;7481;53.750;10.570;2022-07-30T07:08:31;18.90;99.90
14779;DHT22;7481;53.750;10.570;2022-07-30T07:11:18;19.10;99.90
14779;DHT22;7481;53.750;10.570;2022-07-30T07:14:05;19.30;99.90
14779;DHT22;7481;53.750;10.570;2022-07-30T07:16:52;19.50;99.90
14779;DHT22;7481;53.750;10.570;2022-07-30T07:19:39;19.60;99.90
14779;DHT22;7481;53.750;10.570;2022-07-30T07:22:46;19.70;99.90
14779;DHT22;7481;53.750;10.570;2022-07-30T07:25:33;19.70;99.90
14779;DHT22;7481;53.750;10.570;2022-07-30T07:28:20;19.70;99.90
14779;DHT22;7481;53.750;10.570;2022-07-30T07:31:07;19.60;99.90
14779;DHT22;7481;53.750;10.570;2022-07-30T07:33:55;19.60;99.90
14779;DHT22;7481;53.750;10.570;2022-07-30T07:36:42;19.50;99.90
14779;DHT22;7481;53.750;10.570;2022-07-30T07:39:29;19.50;99.90
14779;DHT22;7481;53.750;10.570;2022-07-30T07:42:16;19.50;99.90
14779;DHT22;7481;53.750;10.570;2022-07-30T07:45:03;19.60;99.90
14779;DHT22;7481;53.750;10.570;2022-07-30T07:47:50;19.60;99.90
14779;DHT22;7481;53.750;10.570;2022-07-30T07:50:39;19.60;99.90
14779;DHT22;7481;53.750;10.570;2022-07-30T07:53:26;19.70;99.90
14779;DHT22;7481;53.750;10.570;2022-07-30T07:56:13;19.80;99.90
14779;DHT22;7481;53.750;10.570;2022-07-30T07:59:01;19.80;99.90
14779;DHT22;7481;53.750;10.570;2022-07-30T08:01:49;19.80;99.90
14779;DHT22;7481;53.750;10.570;2022-07-30T08:04:37;19.80;99.90
14779;DHT22;7481;53.750;10.570;2022-07-30T08:07:24;19.90;99.90
14779;DHT22;7481;53.750;10.570;2022-07-30T08:10:11;20.10;99.90
14779;DHT22;7481;53.750;10.570;2022-07-30T08:13:00;20.20;99.90
14779;DHT22;7481;53.750;10.570;2022-07-30T08:15:49;20.30;99.90
14779;DHT22;7481;53.750;10.570;2022-07-30T08:18:36;20.40;99.90
14779;DHT22;7481;53.750;10.570;2022-07-30T08:21:23;20.40;99.90
14779;DHT22;7481;53.750;10.570;2022-07-30T08:24:10;20.50;99.90
14779;DHT22;7481;53.750;10.570;2022-07-30T08:26:57;18.80;99.90
14779;DHT22;7481;53.750;10.570;2022-07-30T08:29:45;20.80;99.90
14779;DHT22;7481;53.750;10.570;2022-07-30T08:32:32;20.80;99.90
14779;DHT22;7481;53.750;10.570;2022-07-30T08:35:19;20.90;99.90
14779;DHT22;7481;53.750;10.570;2022-07-30T08:38:06;21.10;99.90
14779;DHT22;7481;53.750;10.570;2022-07-30T08:40:54;21.20;99.90
14779;DHT22;7481;53.750;10.570;2022-07-30T08:43:42;21.40;99.90
14779;DHT22;7481;53.750;10.570;2022-07-30T08:46:30;21.50;99.90
14779;DHT22;7481;53.750;10.570;2022-07-30T08:49:19;21.80;99.90
14779;DHT22;7481;53.750;10.570;2022-07-30T08:52:09;21.90;99.90
14779;DHT22;7481;53.750;10.570;2022-07-30T08:54:56;22.00;99.90
14779;DHT22;7481;53.750;10.570;2022-07-30T08:57:43;22.20;99.90
14779;DHT22;7481;53.750;10.570;2022-07-30T09:00:30;22.40;99.90
14779;DHT22;7481;53.750;10.570;2022-07-30T09:03:17;22.50;99.90
14779;DHT22;7481;53.750;10.570;2022-07-30T09:06:05;22.60;99.90
14779;DHT22;7481;53.750;10.570;2022-07-30T09:08:52;22.80;99.90
14779;DHT22;7481;53.750;10.570;2022-07-30T09:11:40;22.90;99.90
14779;DHT22;7481;53.750;10.570;2022-07-30T09:14:27;22.90;99.90
14779;DHT22;7481;53.750;10.570;2022-07-30T09:17:16;23.00;99.90
14779;DHT22;7481;53.750;10.570;2022-07-30T09:20:04;23.10;99.90
14779;DHT22;7481;53.750;10.570;2022-07-30T09:22:54;23.10;99.90
14779;DHT22;7481;53.750;10.570;2022-07-30T09:25:47;23.10;99.90
14779;DHT22;7481;53.750;10.570;2022-07-30T09:28:34;23.20;99.90
14779;DHT22;7481;53.750;10.570;2022-07-30T09:31:21;23.30;99.90
14779;DHT22;7481;53.750;10.570;2022-07-30T09:34:29;23.40;99.90
14779;DHT22;7481;53.750;10.570;2022-07-30T09:37:17;23.50;99.90
14779;DHT22;7481;53.750;10.570;2022-07-30T09:40:30;23.80;99.90
14779;DHT22;7481;53.750;10.570;2022-07-30T09:43:18;24.30;99.90
14779;DHT22;7481;53.750;10.570;2022-07-30T09:46:08;24.80;99.90
14779;DHT22;7481;53.750;10.570;2022-07-30T09:49:15;25.10;99.90
14779;DHT22;7481;53.750;10.570;2022-07-30T09:52:04;25.50;99.90
14779;DHT22;7481;53.750;10.570;2022-07-30T09:54:52;25.80;99.90
14779;DHT22;7481;53.750;10.570;2022-07-30T09:58:00;26.40;99.90
14779;DHT22;7481;53.750;10.570;2022-07-30T10:00:48;26.80;99.90
14779;DHT22;7481;53.750;10.570;2022-07-30T10:03:42;27.10;99.90
14779;DHT22;7481;53.750;10.570;2022-07-30T10:06:35;27.40;99.90
14779;DHT22;7481;53.750;10.570;2022-07-30T10:12:16;27.80;99.90
14779;DHT22;7481;53.750;10.570;2022-07-30T10:15:10;28.20;99.90
14779;DHT22;7481;53.750;10.570;2022-07-30T10:18:00;28.70;98.80
14779;DHT22;7481;53.750;10.570;2022-07-30T10:20:52;28.90;97.50
14779;DHT22;7481;53.750;10.570;2022-07-30T10:23:39;29.00;97.60
14779;DHT22;7481;53.750;10.570;2022-07-30T10:26:32;29.10;97.40
14779;DHT22;7481;53.750;10.570;2022-07-30T10:29:20;28.80;97.00
14779;DHT22;7481;53.750;10.570;2022-07-30T10:32:19;29.10;96.80
14779;DHT22;7481;53.750;10.570;2022-07-30T10:35:16;29.60;96.80
14779;DHT22;7481;53.750;10.570;2022-07-30T10:38:28;29.70;95.20
14779;DHT22;7481;53.750;10.570;2022-07-30T10:41:25;30.10;95.70
14779;DHT22;7481;53.750;10.570;2022-07-30T10:44:40;30.20;95.20
14779;DHT22;7481;53.750;10.570;2022-07-30T10:47:33;30.40;95.10
14779;DHT22;7481;53.750;10.570;2022-07-30T10:50:51;30.70;95.00
14779;DHT22;7481;53.750;10.570;2022-07-30T10:53:41;30.80;94.30
14779;DHT22;7481;53.750;10.570;2022-07-30T10:56:31;30.90;94.60
14779;DHT22;7481;53.750;10.570;2022-07-30T10:59:19;31.10;93.30
14779;DHT22;7481;53.750;10.570;2022-07-30T11:02:07;30.90;93.30
14779;DHT22;7481;53.750;10.570;2022-07-30T11:08:39;30.90;92.90
14779;DHT22;7481;53.750;10.570;2022-07-30T11:17:59;31.40;92.10
14779;DHT22;7481;53.750;10.570;2022-07-30T11:21:20;31.30;92.60
14779;DHT22;7481;53.750;10.570;2022-07-30T11:24:45;31.30;91.20
14779;DHT22;7481;53.750;10.570;2022-07-30T11:27:35;31.10;92.10
14779;DHT22;7481;53.750;10.570;2022-07-30T11:33:20;30.90;92.60
14779;DHT22;7481;53.750;10.570;2022-07-30T11:36:18;31.00;91.70
14779;DHT22;7481;53.750;10.570;2022-07-30T11:39:05;30.50;92.60
14779;DHT22;7481;53.750;10.570;2022-07-30T11:48:10;30.50;92.60
14779;DHT22;7481;53.750;10.570;2022-07-30T11:50:57;30.80;92.50
14779;DHT22;7481;53.750;10.570;2022-07-30T11:54:19;30.90;92.20
14779;DHT22;7481;53.750;10.570;2022-07-30T11:57:06;31.00;93.00
14779;DHT22;7481;53.750;10.570;2022-07-30T11:59:57;31.10;92.30
14779;DHT22;7481;53.750;10.570;2022-07-30T12:02:45;31.10;91.50
14779;DHT22;7481;53.750;10.570;2022-07-30T12:05:32;31.10;92.20
14779;DHT22;7481;53.750;10.570;2022-07-30T12:08:20;31.20;92.10
14779;DHT22;7481;53.750;10.570;2022-07-30T12:11:22;31.50;92.30
14779;DHT22;7481;53.750;10.570;2022-07-30T12:14:09;31.90;92.10
14779;DHT22;7481;53.750;10.570;2022-07-30T12:16:56;32.00;92.30
14779;DHT22;7481;53.750;10.570;2022-07-30T12:19:46;31.80;91.90
14779;DHT22;7481;53.750;10.570;2022-07-30T12:22:34;31.40;92.40
14779;DHT22;7481;53.750;10.570;2022-07-30T12:25:21;30.70;92.50
14779;DHT22;7481;53.750;10.570;2022-07-30T12:28:09;30.40;93.50
14779;DHT22;7481;53.750;10.570;2022-07-30T12:30:58;30.50;93.30
14779;DHT22;7481;53.750;10.570;2022-07-30T12:33:46;30.90;92.70
14779;DHT22;7481;53.750;10.570;2022-07-30T12:36:34;31.20;92.30
14779;DHT22;7481;53.750;10.570;2022-07-30T12:39:23;31.10;91.60
14779;DHT22;7481;53.750;10.570;2022-07-30T12:42:20;30.80;92.60
14779;DHT22;7481;53.750;10.570;2022-07-30T12:45:25;30.80;92.40
14779;DHT22;7481;53.750;10.570;2022-07-30T12:48:12;30.60;91.90
14779;DHT22;7481;53.750;10.570;2022-07-30T12:51:08;30.80;92.20
14779;DHT22;7481;53.750;10.570;2022-07-30T12:53:55;30.70;91.60
14779;DHT22;7481;53.750;10.570;2022-07-30T12:57:04;30.50;92.30
14779;DHT22;7481;53.750;10.570;2022-07-30T13:00:06;30.40;92.80
14779;DHT22;7481;53.750;10.570;2022-07-30T13:02:55;30.20;93.30
14779;DHT22;7481;53.750;10.570;2022-07-30T13:05:50;30.30;92.30
14779;DHT22;7481;53.750;10.570;2022-07-30T13:09:17;30.40;93.00
14779;DHT22;7481;53.750;10.570;2022-07-30T13:12:06;30.60;93.00
14779;DHT22;7481;53.750;10.570;2022-07-30T13:14:57;30.70;92.30
14779;DHT22;7481;53.750;10.570;2022-07-30T13:17:44;30.20;93.00
14779;DHT22;7481;53.750;10.570;2022-07-30T13:20:31;29.70;93.30
14779;DHT22;7481;53.750;10.570;2022-07-30T13:23:18;29.10;95.90
14779;DHT22;7481;53.750;10.570;2022-07-30T13:26:05;28.40;96.90
14779;DHT22;7481;53.750;10.570;2022-07-30T13:28:53;27.80;97.30
14779;DHT22;7481;53.750;10.570;2022-07-30T13:31:44;27.40;98.20
14779;DHT22;7481;53.750;10.570;2022-07-30T13:34:31;27.20;98.30
14779;DHT22;7481;53.750;10.570;2022-07-30T13:37:18;27.10;99.10
14779;DHT22;7481;53.750;10.570;2022-07-30T13:40:09;26.90;99.30
14779;DHT22;7481;53.750;10.570;2022-07-30T13:42:57;26.70;99.50
14779;DHT22;7481;53.750;10.570;2022-07-30T13:45:44;26.60;99.90
14779;DHT22;7481;53.750;10.570;2022-07-30T13:48:32;26.60;99.70
14779;DHT22;7481;53.750;10.570;2022-07-30T13:51:19;26.60;99.90
14779;DHT22;7481;53.750;10.570;2022-07-30T13:54:06;26.80;99.60
14779;DHT22;7481;53.750;10.570;2022-07-30T13:56:53;27.00;99.30
14779;DHT22;7481;53.750;10.570;2022-07-30T13:59:40;28.00;99.90
14779;DHT22;7481;53.750;10.570;2022-07-30T14:02:27;27.10;99.50
14779;DHT22;7481;53.750;10.570;2022-07-30T14:05:17;27.10;99.90
14779;DHT22;7481;53.750;10.570;2022-07-30T14:08:05;27.00;99.90
14779;DHT22;7481;53.750;10.570;2022-07-30T14:10:53;26.90;99.90
14779;DHT22;7481;53.750;10.570;2022-07-30T14:13:40;26.90;99.90
14779;DHT22;7481;53.750;10.570;2022-07-30T14:16:27;27.00;99.80
14779;DHT22;7481;53.750;10.570;2022-07-30T14:19:31;27.20;99.90
14779;DHT22;7481;53.750;10.570;2022-07-30T14:22:18;27.30;99.90
14779;DHT22;7481;53.750;10.570;2022-07-30T14:25:05;27.20;99.90
14779;DHT22;7481;53.750;10.570;2022-07-30T14:27:53;27.10;99.80
14779;DHT22;7481;53.750;10.570;2022-07-30T14:30:40;27.00;99.90
14779;DHT22;7481;53.750;10.570;2022-07-30T14:33:27;26.90;99.90
14779;DHT22;7481;53.750;10.570;2022-07-30T14:36:14;26.90;99.90
14779;DHT22;7481;53.750;10.570;2022-07-30T14:39:02;26.90;99.90
14779;DHT22;7481;53.750;10.570;2022-07-30T14:41:50;26.80;99.90
14779;DHT22;7481;53.750;10.570;2022-07-30T14:44:42;26.80;99.90
14779;DHT22;7481;53.750;10.570;2022-07-30T14:47:29;26.80;99.90
14779;DHT22;7481;53.750;10.570;2022-07-30T14:50:16;26.70;99.90
14779;DHT22;7481;53.750;10.570;2022-07-30T14:53:03;26.60;99.90
14779;DHT22;7481;53.750;10.570;2022-07-30T14:55:50;26.70;99.90
14779;DHT22;7481;53.750;10.570;2022-07-30T14:58:37;26.80;99.90
14779;DHT22;7481;53.750;10.570;2022-07-30T15:01:24;26.90;99.90
14779;DHT22;7481;53.750;10.570;2022-07-30T15:04:11;27.10;99.90
14779;DHT22;7481;53.750;10.570;2022-07-30T15:06:58;27.20;99.90
14779;DHT22;7481;53.750;10.570;2022-07-30T15:09:46;27.30;99.40
14779;DHT22;7481;53.750;10.570;2022-07-30T15:12:34;27.10;99.90
14779;DHT22;7481;53.750;10.570;2022-07-30T15:15:22;27.10;99.90
14779;DHT22;7481;53.750;10.570;2022-07-30T15:18:12;27.30;99.90
14779;DHT22;7481;53.750;10.570;2022-07-30T15:21:00;27.30;99.90
14779;DHT22;7481;53.750;10.570;2022-07-30T15:23:47;27.20;99.90
14779;DHT22;7481;53.750;10.570;2022-07-30T15:26:34;27.10;99.90
14779;DHT22;7481;53.750;10.570;2022-07-30T15:29:21;27.00;99.90
14779;DHT22;7481;53.750;10.570;2022-07-30T15:32:09;27.00;99.90
14779;DHT22;7481;53.750;10.570;2022-07-30T15:34:56;27.00;99.90
14779;DHT22;7481;53.750;10.570;2022-07-30T15:37:44;27.00;99.90
14779;DHT22;7481;53.750;10.570;2022-07-30T15:40:31;27.00;99.90
14779;DHT22;7481;53.750;10.570;2022-07-30T15:43:18;27.20;99.90
14779;DHT22;7481;53.750;10.570;2022-07-30T15:46:05;27.30;99.90
14779;DHT22;7481;53.750;10.570;2022-07-30T15:48:52;27.10;99.90
14779;DHT22;7481;53.750;10.570;2022-07-30T15:51:39;27.10;99.50
14779;DHT22;7481;53.750;10.570;2022-07-30T15:54:33;26.90;99.90
14779;DHT22;7481;53.750;10.570;2022-07-30T15:57:20;26.80;99.90
14779;DHT22;7481;53.750;10.570;2022-07-30T16:00:08;26.70;99.90
14779;DHT22;7481;53.750;10.570;2022-07-30T16:02:56;26.60;99.90
14779;DHT22;7481;53.750;10.570;2022-07-30T16:05:44;26.60;99.90
14779;DHT22;7481;53.750;10.570;2022-07-30T16:08:38;26.60;99.90
14779;DHT22;7481;53.750;10.570;2022-07-30T16:11:25;26.50;99.40
14779;DHT22;7481;53.750;10.570;2022-07-30T16:14:15;26.60;99.20
14779;DHT22;7481;53.750;10.570;2022-07-30T16:17:02;26.60;99.80
14779;DHT22;7481;53.750;10.570;2022-07-30T16:19:49;26.60;99.90
14779;DHT22;7481;53.750;10.570;2022-07-30T16:22:36;26.60;99.90
14779;DHT22;7481;53.750;10.570;2022-07-30T16:25:23;26.60;99.60
14779;DHT22;7481;53.750;10.570;2022-07-30T16:28:10;26.60;99.30
14779;DHT22;7481;53.750;10.570;2022-07-30T16:30:58;26.60;98.70
14779;DHT22;7481;53.750;10.570;2022-07-30T16:33:45;26.40;99.00
14779;DHT22;7481;53.750;10.570;2022-07-30T16:36:33;26.20;99.90
14779;DHT22;7481;53.750;10.570;2022-07-30T16:39:20;26.10;99.90
14779;DHT22;7481;53.750;10.570;2022-07-30T16:42:07;25.80;99.90
14779;DHT22;7481;53.750;10.570;2022-07-30T16:44:53;25.60;99.90
14779;DHT22;7481;53.750;10.570;2022-07-30T16:47:40;25.60;99.90
14779;DHT22;7481;53.750;10.570;2022-07-30T16:50:28;25.40;99.90
14779;DHT22;7481;53.750;10.570;2022-07-30T16:53:16;25.30;99.90
14779;DHT22;7481;53.750;10.570;2022-07-30T16:56:03;25.30;99.90
14779;DHT22;7481;53.750;10.570;2022-07-30T16:58:50;25.20;99.90
14779;DHT22;7481;53.750;10.570;2022-07-30T17:01:37;25.10;99.90
14779;DHT22;7481;53.750;10.570;2022-07-30T17:04:24;25.10;99.90
14779;DHT22;7481;53.750;10.570;2022-07-30T17:07:11;24.90;99.90
14779;DHT22;7481;53.750;10.570;2022-07-30T17:09:58;24.70;99.90
14779;DHT22;7481;53.750;10.570;2022-07-30T17:12:46;24.60;99.90
14779;DHT22;7481;53.750;10.570;2022-07-30T17:15:37;24.60;99.90
14779;DHT22;7481;53.750;10.570;2022-07-30T17:18:24;24.60;99.90
14779;DHT22;7481;53.750;10.570;2022-07-30T17:21:11;24.60;99.90
14779;DHT22;7481;53.750;10.570;2022-07-30T17:23:58;24.50;99.90
14779;DHT22;7481;53.750;10.570;2022-07-30T17:26:45;24.50;99.90
14779;DHT22;7481;53.750;10.570;2022-07-30T17:29:32;24.40;99.90
14779;DHT22;7481;53.750;10.570;2022-07-30T17:32:24;24.30;99.90
14779;DHT22;7481;53.750;10.570;2022-07-30T17:35:11;24.40;99.90
14779;DHT22;7481;53.750;10.570;2022-07-30T17:37:59;24.30;99.90
14779;DHT22;7481;53.750;10.570;2022-07-30T17:40:47;24.30;99.90
14779;DHT22;7481;53.750;10.570;2022-07-30T17:43:34;24.30;99.90
14779;DHT22;7481;53.750;10.570;2022-07-30T17:46:21;24.40;99.90
14779;DHT22;7481;53.750;10.570;2022-07-30T17:49:08;24.30;99.90
14779;DHT22;7481;53.750;10.570;2022-07-30T17:51:55;24.30;99.90
14779;DHT22;7481;53.750;10.570;2022-07-30T17:54:42;24.20;99.90
14779;DHT22;7481;53.750;10.570;2022-07-30T17:57:31;24.20;99.90
14779;DHT22;7481;53.750;10.570;2022-07-30T18:00:18;24.10;99.90
14779;DHT22;7481;53.750;10.570;2022-07-30T18:03:05;24.00;99.90
14779;DHT22;7481;53.750;10.570;2022-07-30T18:05:52;23.90;99.90
14779;DHT22;7481;53.750;10.570;2022-07-30T18:08:39;23.90;99.90
14779;DHT22;7481;53.750;10.570;2022-07-30T18:11:26;23.90;99.90
14779;DHT22;7481;53.750;10.570;2022-07-30T18:14:14;23.80;99.90